Franconia, New Hampshire
Current Conditions -  °F | °C
As of 4:52 PM on Monday 20 Oct 2014 (Local Time) from KHIE Reporting Station
Scattered Clouds Scattered Clouds  
Wind Chill: 45°   Ceiling: Unl
Heat Index: 48°   Visibility: 10mi
Dew Point: 28°   Wind: 6mph
Humidity: 46%   Direction: 250°WSW
Pressure: 29.92"   Gusts: NA
Location:  44.23°N, 71.75°W
Report Text: KHIE 202052Z AUTO 25005KT 10SM SCT100 09/M02 A2992 RMK AO2 SLP142 T00891022 53001
Loading
Personal Weather Stations






























Interactive Weather Map New forecast layout! Learn more

10-Day Weather Forecast

Advertisements
Track Severe Weather on mobile